Time;durP1;ratioP1;P1;durP2;ratioP2;P2;SDS_P1;SDS_P2;PMS_P1;PMS_P2;Temp;Humidity;BMP_temperature;BMP_pressure;BME280_temperature;BME280_humidity;BME280_pressure;Samples;Min_cycle;Max_cycle;Signal;HPM_P1;HPM_P2
2023/05/16 00:00:17;;;;;;;3.90;1.98;;;9.50;99.90;;;;;;5009854;28;20037;-85
2023/05/16 00:02:43;;;;;;;3.08;1.90;;;9.50;99.90;;;;;;5035613;28;20033;-85
2023/05/16 00:05:13;;;;;;;3.53;2.05;;;9.40;99.90;;;;;;5039415;28;20078;-85
2023/05/16 00:07:42;;;;;;;4.10;2.10;;;9.50;99.90;;;;;;5053381;28;20025;-85
2023/05/16 00:10:09;;;;;;;2.83;1.70;;;9.50;99.90;;;;;;5055980;28;20017;-85
2023/05/16 00:12:36;;;;;;;3.25;1.98;;;9.60;99.90;;;;;;5035761;28;20060;-85
2023/05/16 00:15:04;;;;;;;3.05;1.85;;;9.60;99.90;;;;;;5036451;28;20056;-85
2023/05/16 00:17:29;;;;;;;3.25;1.60;;;9.60;99.90;;;;;;5055583;28;20122;-85
2023/05/16 00:19:57;;;;;;;2.83;1.80;;;9.70;99.90;;;;;;5038996;28;20078;-85
2023/05/16 00:22:26;;;;;;;2.97;1.80;;;9.70;99.90;;;;;;5055757;28;20115;-85
2023/05/16 00:24:52;;;;;;;3.40;1.70;;;9.70;99.90;;;;;;5072890;28;20025;-84
2023/05/16 00:27:18;;;;;;;4.53;2.15;;;9.70;99.90;;;;;;5035104;28;20035;-84
2023/05/16 00:29:44;;;;;;;3.08;1.90;;;9.60;99.90;;;;;;5037518;28;20028;-84
2023/05/16 00:32:10;;;;;;;4.32;2.17;;;9.60;99.90;;;;;;5051047;28;20472;-84
2023/05/16 00:34:35;;;;;;;3.38;1.92;;;9.60;99.90;;;;;;5025554;28;20040;-84
2023/05/16 00:37:01;;;;;;;3.13;1.80;;;9.60;99.90;;;;;;5031343;28;20040;-85
2023/05/16 00:39:27;;;;;;;4.05;2.10;;;9.60;99.90;;;;;;5031671;28;20505;-85
2023/05/16 00:41:53;;;;;;;3.25;1.85;;;9.60;99.90;;;;;;5050566;28;20431;-85
2023/05/16 00:44:19;;;;;;;3.13;1.80;;;9.50;99.90;;;;;;5038271;28;20021;-85
2023/05/16 00:46:44;;;;;;;4.28;2.25;;;9.60;99.90;;;;;;5065047;28;20362;-85
2023/05/16 00:49:12;;;;;;;2.45;1.60;;;9.60;99.90;;;;;;5055230;28;20118;-85
2023/05/16 00:51:38;;;;;;;3.33;2.17;;;9.60;99.90;;;;;;5052301;28;20052;-85
2023/05/16 00:54:05;;;;;;;3.88;1.80;;;9.60;99.90;;;;;;5043971;28;20047;-85
2023/05/16 00:56:31;;;;;;;3.08;1.88;;;9.60;99.90;;;;;;5049505;28;20029;-85
2023/05/16 00:58:57;;;;;;;2.90;1.58;;;9.60;99.90;;;;;;5026928;28;20021;-85
2023/05/16 01:01:26;;;;;;;4.10;2.35;;;9.60;99.90;;;;;;5070641;28;20074;-85
2023/05/16 01:03:52;;;;;;;3.10;1.88;;;9.60;99.90;;;;;;5062086;28;20084;-85
2023/05/16 01:06:18;;;;;;;5.90;2.35;;;9.60;99.90;;;;;;5042445;28;20496;-85
2023/05/16 01:08:44;;;;;;;4.65;2.20;;;9.50;99.90;;;;;;5038966;28;20062;-85
2023/05/16 01:11:13;;;;;;;3.63;2.10;;;9.50;99.90;;;;;;5038679;28;20097;-84
2023/05/16 01:13:55;;;;;;;3.50;1.98;;;9.40;99.90;;;;;;5070561;28;20021;-84
2023/05/16 01:16:49;;;;;;;2.80;1.88;;;9.40;99.90;;;;;;5051177;28;20021;-85
2023/05/16 01:19:52;;;;;;;3.30;2.17;;;9.50;99.90;;;;;;5045504;28;20074;-85
2023/05/16 01:23:07;;;;;;;3.72;2.30;;;9.40;99.90;;;;;;5054914;28;20029;-84
2023/05/16 01:25:54;;;;;;;4.05;2.40;;;9.30;99.90;;;;;;5043036;28;20036;-84
2023/05/16 01:28:20;;;;;;;3.13;1.88;;;9.30;99.90;;;;;;5058093;28;20020;-85
2023/05/16 01:30:46;;;;;;;3.58;2.20;;;9.30;99.90;;;;;;5043315;28;20370;-85
2023/05/16 01:33:11;;;;;;;3.85;2.08;;;9.20;99.90;;;;;;5061464;28;20036;-85
2023/05/16 01:36:02;;;;;;;3.55;2.00;;;9.20;99.90;;;;;;5055531;28;20037;-84
2023/05/16 01:38:44;;;;;;;3.53;2.38;;;9.20;99.90;;;;;;5059479;28;20409;-85
2023/05/16 01:41:46;;;;;;;2.75;1.92;;;9.20;99.90;;;;;;5058787;28;20043;-85
2023/05/16 01:44:21;;;;;;;3.63;2.10;;;9.10;99.90;;;;;;5055258;28;20032;-85
2023/05/16 01:46:50;;;;;;;3.10;1.80;;;9.20;99.90;;;;;;5057708;28;20372;-85
2023/05/16 01:49:21;;;;;;;3.08;1.85;;;9.20;99.90;;;;;;5041078;28;20365;-85
2023/05/16 01:51:54;;;;;;;2.70;1.60;;;9.30;99.90;;;;;;5055382;28;20029;-85
2023/05/16 01:54:23;;;;;;;3.15;1.90;;;9.30;99.90;;;;;;5057179;28;20036;-85
2023/05/16 01:56:52;;;;;;;3.55;1.95;;;9.30;99.90;;;;;;5053318;28;20488;-85
2023/05/16 01:59:21;;;;;;;2.83;1.90;;;9.30;99.90;;;;;;5058077;28;20111;-85
2023/05/16 02:01:47;;;;;;;4.25;1.88;;;9.40;99.90;;;;;;5066299;28;20021;-84
2023/05/16 02:04:14;;;;;;;2.75;1.77;;;9.30;99.90;;;;;;5041474;28;20031;-85
2023/05/16 02:06:40;;;;;;;3.22;2.20;;;9.30;99.90;;;;;;5040304;28;20419;-85
2023/05/16 02:09:07;;;;;;;2.60;1.83;;;9.30;99.90;;;;;;5040186;28;20060;-84
2023/05/16 02:11:33;;;;;;;4.15;2.15;;;9.30;99.90;;;;;;5054386;28;20086;-84
2023/05/16 02:13:58;;;;;;;3.55;2.20;;;9.30;99.90;;;;;;5057743;28;20104;-85
2023/05/16 02:16:24;;;;;;;3.15;1.88;;;9.30;99.90;;;;;;5057817;28;20488;-85
2023/05/16 02:18:50;;;;;;;4.20;2.50;;;9.30;99.90;;;;;;5037789;28;20045;-84
2023/05/16 02:21:16;;;;;;;3.05;2.10;;;9.30;99.90;;;;;;5050343;28;20435;-84
2023/05/16 02:23:41;;;;;;;3.85;2.17;;;9.30;99.90;;;;;;5057931;28;20052;-84
2023/05/16 02:26:07;;;;;;;2.97;2.00;;;9.30;99.90;;;;;;5040480;28;20054;-84
2023/05/16 02:28:33;;;;;;;3.72;1.90;;;9.40;99.90;;;;;;5057183;28;20449;-85
2023/05/16 02:30:59;;;;;;;5.15;2.30;;;9.30;99.90;;;;;;5022602;28;20033;-84
2023/05/16 02:33:26;;;;;;;6.85;2.60;;;9.40;99.90;;;;;;5037671;28;20031;-84
2023/05/16 02:35:53;;;;;;;4.35;2.70;;;9.30;99.90;;;;;;5049701;28;20036;-84
2023/05/16 02:38:19;;;;;;;7.35;2.45;;;9.30;99.90;;;;;;5038720;28;20116;-85
2023/05/16 02:40:46;;;;;;;4.38;2.20;;;9.30;99.90;;;;;;5040572;28;20043;-84
2023/05/16 02:43:12;;;;;;;3.28;2.28;;;9.20;99.90;;;;;;5040682;28;20064;-84
2023/05/16 02:45:38;;;;;;;5.63;2.42;;;9.10;99.90;;;;;;5075386;28;20028;-84
2023/05/16 02:48:04;;;;;;;3.78;2.30;;;9.10;99.90;;;;;;5037594;28;20036;-84
2023/05/16 02:50:30;;;;;;;9.45;3.30;;;9.00;99.90;;;;;;5026848;28;20054;-84
2023/05/16 02:52:58;;;;;;;4.57;3.13;;;9.00;99.90;;;;;;5037313;28;20032;-84
2023/05/16 02:55:24;;;;;;;5.22;3.10;;;8.90;99.90;;;;;;5047044;28;20568;-85
2023/05/16 02:57:51;;;;;;;5.40;3.50;;;8.90;99.90;;;;;;5071813;28;20115;-84
2023/05/16 03:00:17;;;;;;;6.75;3.97;;;9.00;99.90;;;;;;5077486;28;20158;-85
2023/05/16 03:02:44;;;;;;;4.35;3.00;;;9.00;99.90;;;;;;5076502;28;20024;-84
2023/05/16 03:05:10;;;;;;;5.05;3.00;;;9.10;99.90;;;;;;5057236;28;20017;-84
2023/05/16 03:07:36;;;;;;;4.05;2.80;;;9.10;99.90;;;;;;5070612;28;20473;-85
2023/05/16 03:10:02;;;;;;;3.42;2.28;;;9.00;99.90;;;;;;5031515;28;20031;-85
2023/05/16 03:12:28;;;;;;;4.13;2.45;;;9.10;99.90;;;;;;5041909;28;20025;-85
2023/05/16 03:14:54;;;;;;;5.10;2.60;;;9.10;99.90;;;;;;5040343;28;20415;-84
2023/05/16 03:17:20;;;;;;;4.78;2.13;;;9.20;99.90;;;;;;5034838;28;20040;-84
2023/05/16 03:19:45;;;;;;;5.05;2.35;;;9.20;99.90;;;;;;5055498;28;20063;-85
2023/05/16 03:22:11;;;;;;;4.60;2.75;;;9.20;99.90;;;;;;5051594;28;20033;-85
2023/05/16 03:24:37;;;;;;;5.68;2.53;;;9.20;99.90;;;;;;5056439;28;20440;-84
2023/05/16 03:27:03;;;;;;;6.72;2.40;;;9.10;99.90;;;;;;5038676;28;20028;-84
2023/05/16 03:29:29;;;;;;;4.13;2.45;;;9.10;99.90;;;;;;5020309;28;20384;-84
2023/05/16 03:31:55;;;;;;;4.07;2.42;;;9.20;99.90;;;;;;5039856;28;20060;-80
2023/05/16 03:34:21;;;;;;;5.60;2.60;;;9.20;99.90;;;;;;5057479;28;20036;-80
2023/05/16 03:36:50;;;;;;;4.18;2.83;;;9.20;99.90;;;;;;5065344;28;20028;-79
2023/05/16 03:39:16;;;;;;;6.18;2.75;;;9.20;99.90;;;;;;5046895;28;20044;-80
2023/05/16 03:41:42;;;;;;;5.28;3.30;;;9.20;99.90;;;;;;5073469;28;20122;-80
2023/05/16 03:44:08;;;;;;;3.70;2.58;;;9.20;99.90;;;;;;5057706;28;20031;-80
2023/05/16 03:46:37;;;;;;;3.75;2.47;;;9.10;99.90;;;;;;5075723;28;20024;-80
2023/05/16 03:49:02;;;;;;;4.05;2.47;;;9.10;99.90;;;;;;5057114;28;20484;-80
2023/05/16 03:51:29;;;;;;;3.92;2.50;;;9.00;99.90;;;;;;5074514;28;20025;-80
2023/05/16 03:53:54;;;;;;;3.65;2.50;;;9.00;99.90;;;;;;5038050;28;20032;-80
2023/05/16 03:56:20;;;;;;;4.00;2.63;;;9.00;99.90;;;;;;5054530;28;20036;-80
2023/05/16 03:58:47;;;;;;;4.78;3.15;;;9.10;99.90;;;;;;5057420;28;20029;-79
2023/05/16 04:01:13;;;;;;;5.53;3.60;;;9.10;99.90;;;;;;5051121;28;20029;-80
2023/05/16 04:03:39;;;;;;;4.50;3.20;;;9.10;99.90;;;;;;5058401;28;20028;-80
2023/05/16 04:06:06;;;;;;;6.38;3.63;;;9.10;99.90;;;;;;5050480;28;20036;-80
2023/05/16 04:08:31;;;;;;;4.60;3.25;;;9.10;99.90;;;;;;5037561;28;20116;-80
2023/05/16 04:10:57;;;;;;;5.07;3.28;;;9.10;99.90;;;;;;5066402;28;20054;-80
2023/05/16 04:13:23;;;;;;;4.35;2.95;;;9.20;99.90;;;;;;5018535;28;20095;-80
2023/05/16 04:15:48;;;;;;;4.65;3.30;;;9.20;99.90;;;;;;5037642;28;20393;-80
2023/05/16 04:18:14;;;;;;;8.57;4.32;;;9.20;99.90;;;;;;5058333;28;20037;-80
2023/05/16 04:20:41;;;;;;;7.30;5.45;;;9.20;99.90;;;;;;5037567;28;20732;-80
2023/05/16 04:23:09;;;;;;;8.02;6.72;;;9.10;99.90;;;;;;5070169;28;20036;-80
2023/05/16 04:25:35;;;;;;;13.18;9.18;;;9.10;99.90;;;;;;5046254;28;20028;-79
2023/05/16 04:28:01;;;;;;;20.17;11.45;;;9.10;99.90;;;;;;5041782;28;20024;-80
2023/05/16 04:30:26;;;;;;;20.27;13.40;;;9.00;99.90;;;;;;5073148;28;20067;-80
2023/05/16 04:32:52;;;;;;;25.45;15.00;;;9.00;99.90;;;;;;5042787;28;20492;-80
2023/05/16 04:35:18;;;;;;;23.33;13.88;;;9.00;99.90;;;;;;5068345;28;20120;-82
2023/05/16 04:37:44;;;;;;;23.88;14.02;;;9.00;99.90;;;;;;5060648;28;20033;-80
2023/05/16 04:40:11;;;;;;;19.75;12.60;;;9.00;99.90;;;;;;5069988;28;20020;-80
2023/05/16 04:42:37;;;;;;;14.35;8.98;;;9.10;99.90;;;;;;5062309;28;20029;-80
2023/05/16 04:45:05;;;;;;;9.82;5.85;;;9.10;99.90;;;;;;5055797;28;20050;-80
2023/05/16 04:47:31;;;;;;;7.85;4.18;;;9.20;99.90;;;;;;5041055;28;20485;-79
2023/05/16 04:49:56;;;;;;;5.38;3.42;;;9.20;99.90;;;;;;5038724;28;20174;-80
2023/05/16 04:52:22;;;;;;;4.15;3.15;;;9.20;99.90;;;;;;5018837;28;20029;-79
2023/05/16 04:54:51;;;;;;;7.03;3.55;;;9.20;99.90;;;;;;5036783;28;20425;-81
2023/05/16 04:57:16;;;;;;;5.32;3.67;;;9.30;99.90;;;;;;5045190;28;20056;-82
2023/05/16 04:59:43;;;;;;;4.88;3.05;;;9.30;99.90;;;;;;5041788;28;20055;-81
2023/05/16 05:02:08;;;;;;;5.82;3.13;;;9.30;99.90;;;;;;5029665;28;20442;-81
2023/05/16 05:04:34;;;;;;;4.95;3.47;;;9.40;99.90;;;;;;5046033;28;20029;-82
2023/05/16 05:07:00;;;;;;;7.63;3.55;;;9.50;99.90;;;;;;5055364;28;20027;-81
2023/05/16 05:09:26;;;;;;;4.95;3.38;;;9.50;99.90;;;;;;5036801;28;20042;-82
2023/05/16 05:11:51;;;;;;;5.25;3.42;;;9.50;99.90;;;;;;5069033;28;20070;-82
2023/05/16 05:14:17;;;;;;;5.43;3.60;;;9.50;99.90;;;;;;5054222;28;20040;-81
2023/05/16 05:16:43;;;;;;;6.25;3.85;;;9.60;99.90;;;;;;5045766;28;20025;-81
2023/05/16 05:19:09;;;;;;;5.60;3.53;;;9.60;99.90;;;;;;5045646;28;20428;-81
2023/05/16 05:21:34;;;;;;;4.30;3.20;;;9.70;99.90;;;;;;5039516;28;20029;-82
2023/05/16 05:24:00;;;;;;;5.35;3.80;;;9.70;99.90;;;;;;5040674;28;20025;-81
2023/05/16 05:26:27;;;;;;;7.15;4.00;;;9.80;99.90;;;;;;5039903;28;20025;-82
2023/05/16 05:28:53;;;;;;;5.22;3.30;;;9.80;99.90;;;;;;5039981;28;20023;-82
2023/05/16 05:31:19;;;;;;;5.43;3.53;;;9.80;99.90;;;;;;5031797;28;20052;-82
2023/05/16 05:33:45;;;;;;;5.25;3.80;;;9.90;99.90;;;;;;5070065;28;20028;-82
2023/05/16 05:36:11;;;;;;;9.40;4.47;;;9.90;99.90;;;;;;5077060;28;20024;-82
2023/05/16 05:38:37;;;;;;;6.75;4.60;;;10.00;99.90;;;;;;5077319;28;20499;-82
2023/05/16 05:41:03;;;;;;;5.28;4.00;;;10.00;99.90;;;;;;5077262;28;20544;-82
2023/05/16 05:43:28;;;;;;;5.47;3.72;;;9.90;99.90;;;;;;5077059;28;20388;-82
2023/05/16 05:45:54;;;;;;;5.22;3.80;;;9.90;99.90;;;;;;5076839;28;20025;-82
2023/05/16 05:48:20;;;;;;;6.82;3.63;;;9.90;99.90;;;;;;5059162;28;20063;-82
2023/05/16 05:50:46;;;;;;;6.57;4.35;;;10.00;99.90;;;;;;5059109;28;20023;-82
2023/05/16 05:53:12;;;;;;;8.38;5.72;;;10.00;99.90;;;;;;5042448;28;20040;-82
2023/05/16 05:55:40;;;;;;;9.10;6.35;;;10.00;99.90;;;;;;5042543;28;20558;-82
2023/05/16 05:58:06;;;;;;;9.30;6.53;;;10.00;99.90;;;;;;5076795;28;20024;-82
2023/05/16 06:00:31;;;;;;;10.50;5.97;;;10.00;99.90;;;;;;5074967;28;20028;-81
2023/05/16 06:02:57;;;;;;;8.00;5.65;;;10.10;99.90;;;;;;5046973;28;20051;-82
2023/05/16 06:05:23;;;;;;;6.93;4.90;;;10.10;99.90;;;;;;5023347;28;20083;-82
2023/05/16 06:07:48;;;;;;;8.05;5.50;;;10.10;99.90;;;;;;5060723;28;20025;-82
2023/05/16 06:10:14;;;;;;;8.70;5.63;;;10.10;99.90;;;;;;5076022;28;20111;-82
2023/05/16 06:12:40;;;;;;;7.95;5.72;;;10.10;99.90;;;;;;5041839;28;20033;-82
2023/05/16 06:15:06;;;;;;;8.30;5.95;;;10.10;99.90;;;;;;5058527;28;20032;-82
2023/05/16 06:17:32;;;;;;;8.40;6.25;;;10.10;99.90;;;;;;5042366;28;20033;-82
2023/05/16 06:19:58;;;;;;;7.65;5.15;;;10.10;99.90;;;;;;5058337;28;20512;-82
2023/05/16 06:22:23;;;;;;;6.38;4.45;;;10.10;99.90;;;;;;5058613;28;20025;-82
2023/05/16 06:24:49;;;;;;;8.20;5.75;;;10.20;99.90;;;;;;5058908;28;20028;-82
2023/05/16 06:27:15;;;;;;;7.35;5.22;;;10.20;99.90;;;;;;5058700;28;20024;-82
2023/05/16 06:29:40;;;;;;;7.55;5.13;;;10.20;99.90;;;;;;5058636;28;20124;-82
2023/05/16 06:32:06;;;;;;;7.45;5.43;;;10.30;99.90;;;;;;5041859;28;20064;-82
2023/05/16 06:34:32;;;;;;;8.93;5.88;;;10.30;99.90;;;;;;5058632;28;20036;-82
2023/05/16 06:36:58;;;;;;;8.25;5.28;;;10.30;99.90;;;;;;5058133;28;20060;-82
2023/05/16 06:39:24;;;;;;;7.55;4.75;;;10.30;99.90;;;;;;5039541;28;20028;-82
2023/05/16 06:41:50;;;;;;;9.55;5.28;;;10.30;99.90;;;;;;5033976;28;20040;-82
2023/05/16 06:44:16;;;;;;;6.50;4.47;;;10.40;99.90;;;;;;5036139;28;20036;-82
2023/05/16 06:46:42;;;;;;;7.65;4.55;;;10.40;99.90;;;;;;5042161;28;20020;-82
2023/05/16 06:49:07;;;;;;;7.82;5.40;;;10.50;99.90;;;;;;5058117;28;20035;-82
2023/05/16 06:51:33;;;;;;;8.52;5.00;;;10.60;99.90;;;;;;5041787;28;20031;-82
2023/05/16 06:53:59;;;;;;;6.78;4.75;;;10.60;99.90;;;;;;5057929;28;20040;-82
2023/05/16 06:56:24;;;;;;;6.13;4.85;;;10.60;99.90;;;;;;5042448;28;20123;-82
2023/05/16 06:58:50;;;;;;;6.07;4.38;;;10.70;99.90;;;;;;5058215;28;20155;-83
2023/05/16 07:01:16;;;;;;;7.07;4.85;;;10.80;99.90;;;;;;5075967;28;20086;-82
2023/05/16 07:03:41;;;;;;;7.80;4.30;;;10.80;99.90;;;;;;5067176;28;20056;-82
2023/05/16 07:06:08;;;;;;;6.43;4.28;;;10.80;99.90;;;;;;5077968;28;20032;-82
2023/05/16 07:08:34;;;;;;;5.25;3.65;;;10.80;99.90;;;;;;5078126;28;20028;-83
2023/05/16 07:11:00;;;;;;;4.45;3.53;;;10.80;99.90;;;;;;5061303;28;20046;-82
2023/05/16 07:13:26;;;;;;;7.65;4.05;;;10.80;99.90;;;;;;5095836;28;20539;-82
2023/05/16 07:15:52;;;;;;;5.32;3.90;;;10.80;99.90;;;;;;5077573;28;20122;-82
2023/05/16 07:18:17;;;;;;;6.68;4.50;;;10.80;99.90;;;;;;5077724;28;20028;-83
2023/05/16 07:20:44;;;;;;;5.40;4.03;;;10.80;99.90;;;;;;5095894;28;20053;-82
2023/05/16 07:23:10;;;;;;;6.25;3.85;;;10.90;99.90;;;;;;5077576;28;20032;-82
2023/05/16 07:25:35;;;;;;;5.90;3.80;;;10.90;99.90;;;;;;5076658;28;20024;-82
2023/05/16 07:28:01;;;;;;;6.95;4.85;;;10.90;99.90;;;;;;5077365;28;20054;-83
2023/05/16 07:30:27;;;;;;;6.93;4.85;;;11.00;99.90;;;;;;5095421;28;20483;-82
2023/05/16 07:32:53;;;;;;;6.93;4.63;;;11.00;99.90;;;;;;5093235;28;20028;-82
2023/05/16 07:35:19;;;;;;;7.07;4.22;;;11.00;99.90;;;;;;5075010;28;20084;-82
2023/05/16 07:37:45;;;;;;;6.28;3.97;;;11.00;99.90;;;;;;5040946;28;20105;-82
2023/05/16 07:40:11;;;;;;;6.80;4.40;;;11.00;99.90;;;;;;5057702;28;20040;-82
2023/05/16 07:42:36;;;;;;;5.07;3.70;;;11.00;99.90;;;;;;5057213;28;20500;-82
2023/05/16 07:45:03;;;;;;;5.15;3.72;;;11.00;99.90;;;;;;5057476;28;20028;-82
2023/05/16 07:47:28;;;;;;;8.18;4.97;;;11.10;99.90;;;;;;5075055;28;20062;-82
2023/05/16 07:49:54;;;;;;;5.57;4.05;;;11.10;99.90;;;;;;5074681;28;20028;-82
2023/05/16 07:52:20;;;;;;;6.35;4.07;;;11.20;99.90;;;;;;5056890;28;20028;-82
2023/05/16 07:54:46;;;;;;;6.93;3.65;;;11.20;99.90;;;;;;5075096;28;20032;-82
2023/05/16 07:57:16;;;;;;;7.75;4.43;;;11.20;99.90;;;;;;5056906;28;20086;-82
2023/05/16 07:59:42;;;;;;;6.45;4.60;;;11.30;99.90;;;;;;5074749;28;20115;-82
2023/05/16 08:02:09;;;;;;;6.97;3.92;;;11.30;99.90;;;;;;5040362;28;20029;-82
2023/05/16 08:04:34;;;;;;;5.20;3.65;;;11.30;99.90;;;;;;5058457;28;20489;-82
2023/05/16 08:07:00;;;;;;;5.97;4.15;;;11.40;99.90;;;;;;5036801;28;20039;-82
2023/05/16 08:09:26;;;;;;;6.47;3.95;;;11.50;99.90;;;;;;5020211;28;20087;-82
2023/05/16 08:11:52;;;;;;;5.70;4.20;;;11.50;99.90;;;;;;5036639;28;20053;-82
2023/05/16 08:14:17;;;;;;;5.32;3.53;;;11.40;99.90;;;;;;5020375;28;20027;-82
2023/05/16 08:16:43;;;;;;;4.90;3.50;;;11.50;99.90;;;;;;5054474;28;20025;-82
2023/05/16 08:19:09;;;;;;;5.93;4.10;;;11.50;99.90;;;;;;5003892;28;20052;-82
2023/05/16 08:21:35;;;;;;;4.82;3.20;;;11.50;99.90;;;;;;5036459;28;20035;-82
2023/05/16 08:24:00;;;;;;;4.20;3.13;;;11.50;99.90;;;;;;5036582;28;20108;-82
2023/05/16 08:26:26;;;;;;;4.70;3.38;;;11.50;99.90;;;;;;5054822;28;20025;-82
2023/05/16 08:28:52;;;;;;;4.78;3.28;;;11.50;99.90;;;;;;5054270;28;20051;-82
2023/05/16 08:31:17;;;;;;;4.28;3.00;;;11.60;99.90;;;;;;5020010;28;20025;-82
2023/05/16 08:33:43;;;;;;;5.70;3.40;;;11.60;99.90;;;;;;5063705;28;20055;-82
2023/05/16 08:36:09;;;;;;;5.07;3.42;;;11.70;99.90;;;;;;5040955;28;20036;-82
2023/05/16 08:38:35;;;;;;;7.03;3.40;;;11.70;99.90;;;;;;5056810;28;20481;-82
2023/05/16 08:41:01;;;;;;;5.18;3.97;;;11.70;99.90;;;;;;5074682;28;20484;-82
2023/05/16 08:43:27;;;;;;;5.15;3.78;;;11.70;99.90;;;;;;5040033;28;20040;-82
2023/05/16 08:45:53;;;;;;;5.00;3.67;;;11.70;99.90;;;;;;5056494;28;20023;-82
2023/05/16 08:48:22;;;;;;;9.05;6.60;;;11.60;99.90;;;;;;5056964;28;20024;-82
2023/05/16 08:50:48;;;;;;;7.13;3.92;;;11.60;99.90;;;;;;5056374;28;20090;-82
2023/05/16 08:53:20;;;;;;;6.35;3.70;;;11.60;99.90;;;;;;5074743;28;20051;-82
2023/05/16 08:55:47;;;;;;;7.43;4.07;;;11.60;99.90;;;;;;5074323;28;20082;-82
2023/05/16 08:58:13;;;;;;;5.65;3.67;;;11.60;99.90;;;;;;5056269;28;20028;-82
2023/05/16 09:00:39;;;;;;;5.20;3.78;;;11.60;99.90;;;;;;5056710;28;20032;-82
2023/05/16 09:03:05;;;;;;;5.60;3.60;;;11.60;99.90;;;;;;5055976;28;20028;-82
2023/05/16 09:05:31;;;;;;;5.28;4.60;;;11.60;99.90;;;;;;5056299;28;20025;-82
2023/05/16 09:07:57;;;;;;;5.05;4.20;;;11.70;99.90;;;;;;5056440;28;20021;-82
2023/05/16 09:10:23;;;;;;;5.13;3.60;;;11.70;99.90;;;;;;5039801;28;20077;-82
2023/05/16 09:12:49;;;;;;;6.07;4.40;;;11.80;99.90;;;;;;5074163;28;20044;-82
2023/05/16 09:15:17;;;;;;;6.22;4.07;;;11.80;99.90;;;;;;5055897;28;20064;-82
2023/05/16 09:17:45;;;;;;;4.78;3.45;;;11.80;99.90;;;;;;5074310;28;20123;-82
2023/05/16 09:20:17;;;;;;;3.85;3.13;;;11.80;99.90;;;;;;5073897;28;20017;-82
2023/05/16 09:22:57;;;;;;;4.75;2.67;;;11.90;99.90;;;;;;5073972;28;20056;-82
2023/05/16 09:25:25;;;;;;;4.82;3.35;;;11.90;99.90;;;;;;5055988;28;20016;-82
2023/05/16 09:27:55;;;;;;;3.72;2.65;;;12.00;99.90;;;;;;5074086;28;20021;-82
2023/05/16 09:30:28;;;;;;;3.92;2.53;;;12.00;99.90;;;;;;5073792;28;20021;-82
2023/05/16 09:32:53;;;;;;;3.95;2.60;;;12.10;99.90;;;;;;5074091;28;20028;-82
2023/05/16 09:35:20;;;;;;;5.15;3.50;;;12.20;99.90;;;;;;5055921;28;20400;-82
2023/05/16 09:37:47;;;;;;;5.97;3.42;;;12.20;99.90;;;;;;5055887;28;20480;-82
2023/05/16 09:40:13;;;;;;;5.07;3.80;;;12.20;99.90;;;;;;5055602;28;20488;-82
2023/05/16 09:42:39;;;;;;;4.50;3.30;;;12.30;99.90;;;;;;5055854;28;20063;-82
2023/05/16 09:45:05;;;;;;;5.50;3.55;;;12.20;99.90;;;;;;5055787;28;20028;-82
2023/05/16 09:47:31;;;;;;;4.57;3.70;;;12.20;99.90;;;;;;5055938;28;20078;-82
2023/05/16 09:49:57;;;;;;;5.05;3.45;;;12.20;99.90;;;;;;5059098;28;20381;-82
2023/05/16 09:52:26;;;;;;;5.40;3.40;;;12.10;99.90;;;;;;5077015;28;20419;-82
2023/05/16 09:54:53;;;;;;;5.30;3.47;;;12.10;99.90;;;;;;5076507;28;20086;-82
2023/05/16 09:57:25;;;;;;;4.15;3.20;;;12.10;99.90;;;;;;5058678;28;20032;-82
2023/05/16 09:59:51;;;;;;;4.57;3.65;;;12.10;99.90;;;;;;5059754;28;20021;-82
2023/05/16 10:02:17;;;;;;;4.00;2.90;;;12.10;99.90;;;;;;5076303;28;20057;-82
2023/05/16 10:04:43;;;;;;;5.13;3.08;;;12.10;99.90;;;;;;5041192;28;20020;-83
2023/05/16 10:07:09;;;;;;;4.82;2.70;;;12.00;99.90;;;;;;5038475;28;20509;-83
2023/05/16 10:09:38;;;;;;;3.67;2.75;;;12.00;99.90;;;;;;5056370;28;20040;-83
2023/05/16 10:12:11;;;;;;;4.40;3.63;;;12.00;99.90;;;;;;5038410;28;20114;-83
2023/05/16 10:14:40;;;;;;;6.85;4.55;;;12.00;99.90;;;;;;5056283;28;20032;-83
2023/05/16 10:17:09;;;;;;;5.22;3.92;;;12.10;99.90;;;;;;5040172;28;20036;-83
2023/05/16 10:19:38;;;;;;;7.85;4.50;;;12.10;99.90;;;;;;5038489;28;20025;-83
2023/05/16 10:22:05;;;;;;;6.50;4.68;;;12.20;99.90;;;;;;5038183;28;20484;-83
2023/05/16 10:24:59;;;;;;;7.45;5.43;;;12.20;99.90;;;;;;5056586;28;20060;-83
2023/05/16 10:27:26;;;;;;;6.88;4.80;;;12.20;99.90;;;;;;5055999;28;20032;-84
2023/05/16 10:29:52;;;;;;;6.63;4.90;;;12.20;99.90;;;;;;5021709;28;20021;-84
2023/05/16 10:32:19;;;;;;;6.75;4.47;;;12.20;99.90;;;;;;5038147;28;20025;-84
2023/05/16 10:34:45;;;;;;;8.32;5.78;;;12.10;99.90;;;;;;5091227;28;20032;-84
2023/05/16 10:37:11;;;;;;;9.18;4.85;;;12.10;99.90;;;;;;5078033;28;20086;-84
2023/05/16 10:39:38;;;;;;;5.70;4.30;;;12.20;99.90;;;;;;5061712;28;20065;-84
2023/05/16 10:42:05;;;;;;;5.75;4.82;;;12.20;99.90;;;;;;5048155;28;20377;-83
2023/05/16 10:44:32;;;;;;;5.95;5.20;;;12.30;99.90;;;;;;5071585;28;20027;-84
2023/05/16 10:46:59;;;;;;;6.93;5.00;;;12.30;99.90;;;;;;5074963;28;20108;-85
2023/05/16 10:49:26;;;;;;;8.13;4.93;;;12.30;99.90;;;;;;5057770;28;20459;-85
2023/05/16 10:52:06;;;;;;;9.68;6.22;;;12.40;99.90;;;;;;5039616;28;20389;-85
2023/05/16 10:54:48;;;;;;;9.82;7.13;;;12.30;99.90;;;;;;5039640;28;20029;-85
2023/05/16 10:57:22;;;;;;;8.57;6.22;;;12.30;99.90;;;;;;5042451;28;20024;-84
2023/05/16 10:59:49;;;;;;;8.07;6.50;;;12.30;99.90;;;;;;5056869;28;20021;-84
2023/05/16 11:02:28;;;;;;;10.07;6.68;;;12.20;99.90;;;;;;5057744;28;20028;-85
2023/05/16 11:04:58;;;;;;;7.20;4.63;;;12.20;99.90;;;;;;5071355;28;20044;-84
2023/05/16 11:07:25;;;;;;;7.88;5.70;;;12.10;99.90;;;;;;5042720;28;20494;-83
2023/05/16 11:10:09;;;;;;;8.30;6.35;;;12.20;99.90;;;;;;5043677;28;20119;-83
2023/05/16 11:12:46;;;;;;;9.88;7.47;;;12.20;99.90;;;;;;5038720;28;20059;-84
2023/05/16 11:15:27;;;;;;;14.00;8.57;;;12.10;99.90;;;;;;5038605;28;20048;-83
2023/05/16 11:18:15;;;;;;;13.38;8.05;;;12.10;99.90;;;;;;5039657;28;20033;-83
2023/05/16 11:20:41;;;;;;;13.18;9.45;;;12.10;99.90;;;;;;5022675;28;20036;-84
2023/05/16 11:23:16;;;;;;;10.77;6.82;;;12.10;99.90;;;;;;5022801;28;20078;-84
2023/05/16 11:25:48;;;;;;;10.48;7.13;;;12.10;99.90;;;;;;5066546;28;20037;-84
2023/05/16 11:28:13;;;;;;;11.60;6.95;;;12.00;99.90;;;;;;5039016;28;20032;-84
2023/05/16 11:30:58;;;;;;;10.93;7.90;;;12.00;99.90;;;;;;5038335;28;20025;-84
2023/05/16 11:33:24;;;;;;;20.15;14.40;;;12.00;99.90;;;;;;5055226;28;20032;-83
2023/05/16 11:36:07;;;;;;;14.93;10.18;;;12.00;99.90;;;;;;5052885;28;20071;-83
2023/05/16 11:38:33;;;;;;;10.82;7.68;;;12.00;99.90;;;;;;5075774;28;20020;-83
2023/05/16 11:41:07;;;;;;;10.98;7.28;;;12.00;99.90;;;;;;5054235;28;20029;-83
2023/05/16 11:43:51;;;;;;;10.07;7.93;;;12.00;99.90;;;;;;5057196;28;20025;-83
2023/05/16 11:46:16;;;;;;;16.45;9.27;;;12.00;99.90;;;;;;5057616;28;20090;-84
2023/05/16 11:48:44;;;;;;;12.73;8.65;;;12.00;99.90;;;;;;5031432;28;20497;-83
2023/05/16 11:51:10;;;;;;;12.43;8.77;;;12.00;99.90;;;;;;5039924;28;20358;-83
2023/05/16 11:53:37;;;;;;;10.35;7.85;;;12.00;99.90;;;;;;5041467;28;20063;-84
2023/05/16 11:56:03;;;;;;;10.93;7.80;;;12.00;99.90;;;;;;5059104;28;20138;-85
2023/05/16 11:58:28;;;;;;;11.88;8.20;;;12.00;99.90;;;;;;5042904;28;20516;-85
2023/05/16 12:00:54;;;;;;;7.00;4.85;;;11.90;99.90;;;;;;5041823;28;20086;-85
2023/05/16 12:03:22;;;;;;;5.50;4.20;;;11.90;99.90;;;;;;5058514;28;20024;-86
2023/05/16 12:05:53;;;;;;;6.28;4.50;;;12.00;99.90;;;;;;5060918;28;20048;-85
2023/05/16 12:08:26;;;;;;;7.00;4.70;;;11.90;99.90;;;;;;5046690;28;20025;-86
2023/05/16 12:10:52;;;;;;;5.70;3.83;;;11.90;99.90;;;;;;5062000;28;20032;-86
2023/05/16 12:13:23;;;;;;;5.90;4.05;;;11.80;99.90;;;;;;5045962;28;20120;-85
2023/05/16 12:15:51;;;;;;;5.43;4.57;;;11.80;99.90;;;;;;5057940;28;20028;-84
2023/05/16 12:18:20;;;;;;;4.78;3.92;;;11.80;99.90;;;;;;5074152;28;20052;-84
2023/05/16 12:20:46;;;;;;;5.07;3.30;;;11.80;99.90;;;;;;5039499;28;20028;-84
2023/05/16 12:23:13;;;;;;;6.60;4.53;;;11.70;99.90;;;;;;5028140;28;20037;-84
2023/05/16 12:25:44;;;;;;;6.00;4.68;;;11.80;99.90;;;;;;5036358;28;20099;-84
2023/05/16 12:28:12;;;;;;;7.85;5.25;;;11.80;99.90;;;;;;5049258;28;20024;-84
2023/05/16 12:30:43;;;;;;;5.72;3.90;;;11.80;99.90;;;;;;5051460;28;20017;-84
2023/05/16 12:33:14;;;;;;;6.93;5.10;;;11.80;99.90;;;;;;5047964;28;20069;-84
2023/05/16 12:35:44;;;;;;;6.03;4.78;;;11.80;99.90;;;;;;5055141;28;20036;-84
2023/05/16 12:38:12;;;;;;;5.47;4.20;;;11.80;99.90;;;;;;5055876;28;20040;-84
2023/05/16 12:40:41;;;;;;;6.38;4.68;;;11.90;99.90;;;;;;5054589;28;20054;-84
2023/05/16 12:43:20;;;;;;;6.60;4.32;;;11.90;99.90;;;;;;5054163;28;20016;-84
2023/05/16 12:45:51;;;;;;;7.40;3.95;;;12.00;99.90;;;;;;5029122;28;20518;-84
2023/05/16 12:48:17;;;;;;;5.65;4.20;;;12.00;99.90;;;;;;5055037;28;20530;-84
2023/05/16 12:50:45;;;;;;;5.05;4.15;;;12.10;99.90;;;;;;5055369;28;20036;-84
2023/05/16 12:53:18;;;;;;;5.13;4.30;;;12.10;99.90;;;;;;5055628;28;20033;-84